sensor_id;sensor_type;location;lat;lon;timestamp;pressure;altitude;pressure_sealevel;temperature;humidity
1736;BME280;865;53.672;10.250;2024-01-06T00:01:14;100021.56;;;-1.96;100.00
1736;BME280;865;53.672;10.250;2024-01-06T00:03:41;100030.97;;;-1.94;100.00
1736;BME280;865;53.672;10.250;2024-01-06T00:06:07;100026.75;;;-1.93;100.00
1736;BME280;865;53.672;10.250;2024-01-06T00:08:37;100031.97;;;-1.86;100.00
1736;BME280;865;53.672;10.250;2024-01-06T00:11:03;100033.78;;;-1.80;100.00
1736;BME280;865;53.672;10.250;2024-01-06T00:13:30;100035.56;;;-1.76;100.00
1736;BME280;865;53.672;10.250;2024-01-06T00:15:56;100040.66;;;-1.76;100.00
1736;BME280;865;53.672;10.250;2024-01-06T00:18:23;100043.03;;;-1.87;100.00
1736;BME280;865;53.672;10.250;2024-01-06T00:20:50;100049.88;;;-1.86;100.00
1736;BME280;865;53.672;10.250;2024-01-06T00:23:16;100050.84;;;-1.79;100.00
1736;BME280;865;53.672;10.250;2024-01-06T00:25:43;100053.34;;;-1.82;100.00
1736;BME280;865;53.672;10.250;2024-01-06T00:28:09;100056.69;;;-1.85;100.00
1736;BME280;865;53.672;10.250;2024-01-06T00:30:36;100049.91;;;-1.83;100.00
1736;BME280;865;53.672;10.250;2024-01-06T00:33:03;100060.03;;;-1.89;100.00
1736;BME280;865;53.672;10.250;2024-01-06T00:35:29;100054.22;;;-1.80;100.00
1736;BME280;865;53.672;10.250;2024-01-06T00:37:56;100062.69;;;-1.84;100.00
1736;BME280;865;53.672;10.250;2024-01-06T00:40:22;100061.06;;;-1.79;100.00
1736;BME280;865;53.672;10.250;2024-01-06T00:42:49;100062.81;;;-1.76;100.00
1736;BME280;865;53.672;10.250;2024-01-06T00:45:16;100067.88;;;-1.79;100.00
1736;BME280;865;53.672;10.250;2024-01-06T00:47:42;100067.91;;;-1.78;100.00
1736;BME280;865;53.672;10.250;2024-01-06T00:50:09;100068.72;;;-1.80;100.00
1736;BME280;865;53.672;10.250;2024-01-06T00:52:35;100068.78;;;-1.77;100.00
1736;BME280;865;53.672;10.250;2024-01-06T00:55:02;100070.44;;;-1.79;100.00
1736;BME280;865;53.672;10.250;2024-01-06T00:57:28;100066.91;;;-1.85;100.00
1736;BME280;865;53.672;10.250;2024-01-06T00:59:55;100068.44;;;-1.94;100.00
1736;BME280;865;53.672;10.250;2024-01-06T01:02:21;100069.47;;;-1.86;100.00
1736;BME280;865;53.672;10.250;2024-01-06T01:04:48;100069.34;;;-1.92;100.00
1736;BME280;865;53.672;10.250;2024-01-06T01:07:14;100075.13;;;-1.99;100.00
1736;BME280;865;53.672;10.250;2024-01-06T01:09:41;100069.28;;;-1.95;100.00
1736;BME280;865;53.672;10.250;2024-01-06T01:12:08;100070.13;;;-1.95;100.00
1736;BME280;865;53.672;10.250;2024-01-06T01:14:34;100075.25;;;-1.95;100.00
1736;BME280;865;53.672;10.250;2024-01-06T01:17:00;100071.03;;;-1.93;100.00
1736;BME280;865;53.672;10.250;2024-01-06T01:19:27;100081.19;;;-1.96;100.00
1736;BME280;865;53.672;10.250;2024-01-06T01:21:53;100088.81;;;-1.97;100.00
1736;BME280;865;53.672;10.250;2024-01-06T01:24:22;100085.50;;;-1.93;100.00
1736;BME280;865;53.672;10.250;2024-01-06T01:26:49;100089.75;;;-1.94;100.00
1736;BME280;865;53.672;10.250;2024-01-06T01:29:16;100095.63;;;-1.98;100.00
1736;BME280;865;53.672;10.250;2024-01-06T01:31:43;100094.78;;;-1.98;100.00
1736;BME280;865;53.672;10.250;2024-01-06T01:34:09;100095.75;;;-1.93;100.00
1736;BME280;865;53.672;10.250;2024-01-06T01:36:36;100098.38;;;-1.89;100.00
1736;BME280;865;53.672;10.250;2024-01-06T01:39:03;100104.28;;;-1.91;100.00
1736;BME280;865;53.672;10.250;2024-01-06T01:41:29;100108.41;;;-1.98;100.00
1736;BME280;865;53.672;10.250;2024-01-06T01:43:56;100109.19;;;-2.02;100.00
1736;BME280;865;53.672;10.250;2024-01-06T01:46:26;100117.78;;;-1.98;100.00
1736;BME280;865;53.672;10.250;2024-01-06T01:48:57;100120.38;;;-1.95;100.00
1736;BME280;865;53.672;10.250;2024-01-06T01:51:27;100119.66;;;-1.90;100.00
1736;BME280;865;53.672;10.250;2024-01-06T01:53:54;100128.13;;;-1.91;100.00
1736;BME280;865;53.672;10.250;2024-01-06T01:56:20;100127.31;;;-1.90;100.00
1736;BME280;865;53.672;10.250;2024-01-06T01:58:47;100129.03;;;-1.90;100.00
1736;BME280;865;53.672;10.250;2024-01-06T02:01:15;100124.78;;;-1.90;100.00
1736;BME280;865;53.672;10.250;2024-01-06T02:03:42;100129.81;;;-1.93;100.00
1736;BME280;865;53.672;10.250;2024-01-06T02:06:10;100127.28;;;-1.91;100.00
1736;BME280;865;53.672;10.250;2024-01-06T02:08:37;100133.25;;;-1.91;100.00
1736;BME280;865;53.672;10.250;2024-01-06T02:11:04;100132.50;;;-1.85;100.00
1736;BME280;865;53.672;10.250;2024-01-06T02:13:35;100135.13;;;-1.84;100.00
1736;BME280;865;53.672;10.250;2024-01-06T02:16:03;100138.47;;;-1.85;100.00
1736;BME280;865;53.672;10.250;2024-01-06T02:18:30;100145.16;;;-1.93;100.00
1736;BME280;865;53.672;10.250;2024-01-06T02:20:58;100145.16;;;-1.93;100.00
1736;BME280;865;53.672;10.250;2024-01-06T02:23:25;100146.06;;;-1.89;100.00
1736;BME280;865;53.672;10.250;2024-01-06T02:25:52;100150.19;;;-1.96;100.00
1736;BME280;865;53.672;10.250;2024-01-06T02:28:19;100150.19;;;-1.96;100.00
1736;BME280;865;53.672;10.250;2024-01-06T02:30:45;100157.03;;;-1.95;100.00
1736;BME280;865;53.672;10.250;2024-01-06T02:33:12;100162.13;;;-1.95;100.00
1736;BME280;865;53.672;10.250;2024-01-06T02:35:38;100162.91;;;-1.99;100.00
1736;BME280;865;53.672;10.250;2024-01-06T02:38:06;100166.28;;;-2.00;100.00
1736;BME280;865;53.672;10.250;2024-01-06T02:40:35;100162.84;;;-2.02;100.00
1736;BME280;865;53.672;10.250;2024-01-06T02:43:01;100164.56;;;-2.01;100.00
1736;BME280;865;53.672;10.250;2024-01-06T02:45:27;100173.94;;;-2.00;100.00
1736;BME280;865;53.672;10.250;2024-01-06T02:47:54;100168.91;;;-1.97;100.00
1736;BME280;865;53.672;10.250;2024-01-06T02:50:20;100173.13;;;-1.99;100.00
1736;BME280;865;53.672;10.250;2024-01-06T02:52:47;100179.06;;;-2.00;100.00
1736;BME280;865;53.672;10.250;2024-01-06T02:55:14;100172.34;;;-1.95;100.00
1736;BME280;865;53.672;10.250;2024-01-06T02:57:40;100179.97;;;-1.98;100.00
1736;BME280;865;53.672;10.250;2024-01-06T03:00:08;100180.81;;;-1.97;100.00
1736;BME280;865;53.672;10.250;2024-01-06T03:02:34;100189.34;;;-1.97;100.00
1736;BME280;865;53.672;10.250;2024-01-06T03:05:02;100186.78;;;-1.98;100.00
1736;BME280;865;53.672;10.250;2024-01-06T03:07:29;100191.16;;;-1.93;100.00
1736;BME280;865;53.672;10.250;2024-01-06T03:09:55;100192.09;;;-1.88;100.00
1736;BME280;865;53.672;10.250;2024-01-06T03:12:22;100200.66;;;-1.87;100.00
1736;BME280;865;53.672;10.250;2024-01-06T03:14:48;100203.03;;;-1.95;100.00
1736;BME280;865;53.672;10.250;2024-01-06T03:17:14;100206.56;;;-1.90;100.00
1736;BME280;865;53.672;10.250;2024-01-06T03:19:41;100201.50;;;-1.87;100.00
1736;BME280;865;53.672;10.250;2024-01-06T03:22:07;100211.66;;;-1.90;100.00
1736;BME280;865;53.672;10.250;2024-01-06T03:24:34;100216.78;;;-1.88;100.00
1736;BME280;865;53.672;10.250;2024-01-06T03:27:00;100209.84;;;-1.94;100.00
1736;BME280;865;53.672;10.250;2024-01-06T03:29:26;100204.59;;;-2.00;100.00
1736;BME280;865;53.672;10.250;2024-01-06T03:31:53;100215.63;;;-2.02;100.00
1736;BME280;865;53.672;10.250;2024-01-06T03:34:19;100214.03;;;-1.97;100.00
1736;BME280;865;53.672;10.250;2024-01-06T03:36:46;100226.72;;;-2.02;100.00
1736;BME280;865;53.672;10.250;2024-01-06T03:39:12;100209.72;;;-2.00;100.00
1736;BME280;865;53.672;10.250;2024-01-06T03:41:40;100213.97;;;-2.00;100.00
1736;BME280;865;53.672;10.250;2024-01-06T03:44:06;100219.22;;;-1.94;100.00
1736;BME280;865;53.672;10.250;2024-01-06T03:46:34;100216.56;;;-1.99;100.00
1736;BME280;865;53.672;10.250;2024-01-06T03:49:01;100211.47;;;-1.99;100.00
1736;BME280;865;53.672;10.250;2024-01-06T03:51:28;100211.31;;;-2.05;100.00
1736;BME280;865;53.672;10.250;2024-01-06T03:53:54;100214.69;;;-2.08;100.00
1736;BME280;865;53.672;10.250;2024-01-06T03:56:20;100220.59;;;-2.09;100.00
1736;BME280;865;53.672;10.250;2024-01-06T03:58:47;100223.25;;;-2.04;100.00
1736;BME280;865;53.672;10.250;2024-01-06T04:01:13;100227.44;;;-2.08;100.00
1736;BME280;865;53.672;10.250;2024-01-06T04:03:40;100229.16;;;-2.07;100.00
1736;BME280;865;53.672;10.250;2024-01-06T04:06:07;100232.72;;;-2.00;100.00
1736;BME280;865;53.672;10.250;2024-01-06T04:08:33;100233.34;;;-2.10;100.00
1736;BME280;865;53.672;10.250;2024-01-06T04:11:00;100236.81;;;-2.08;100.00
1736;BME280;865;53.672;10.250;2024-01-06T04:13:26;100236.94;;;-2.02;100.00
1736;BME280;865;53.672;10.250;2024-01-06T04:15:52;100235.19;;;-2.04;100.00
1736;BME280;865;53.672;10.250;2024-01-06T04:18:19;100237.59;;;-2.11;100.00
1736;BME280;865;53.672;10.250;2024-01-06T04:20:45;100235.84;;;-2.13;100.00
1736;BME280;865;53.672;10.250;2024-01-06T04:23:12;100242.78;;;-2.08;100.00
1736;BME280;865;53.672;10.250;2024-01-06T04:25:39;100238.59;;;-2.04;100.00
1736;BME280;865;53.672;10.250;2024-01-06T04:28:05;100241.09;;;-2.07;100.00
1736;BME280;865;53.672;10.250;2024-01-06T04:30:32;100238.53;;;-2.07;100.00
1736;BME280;865;53.672;10.250;2024-01-06T04:32:58;100238.53;;;-2.06;100.00
1736;BME280;865;53.672;10.250;2024-01-06T04:35:25;100238.59;;;-2.04;100.00
1736;BME280;865;53.672;10.250;2024-01-06T04:37:51;100247.03;;;-2.08;100.00
1736;BME280;865;53.672;10.250;2024-01-06T04:40:17;100248.63;;;-2.12;100.00
1736;BME280;865;53.672;10.250;2024-01-06T04:42:44;100256.22;;;-2.15;100.00
1736;BME280;865;53.672;10.250;2024-01-06T04:45:10;100253.66;;;-2.16;100.00
1736;BME280;865;53.672;10.250;2024-01-06T04:47:37;100251.09;;;-2.15;100.00
1736;BME280;865;53.672;10.250;2024-01-06T04:50:03;100251.94;;;-2.16;100.00
1736;BME280;865;53.672;10.250;2024-01-06T04:52:31;100261.38;;;-2.13;100.00
1736;BME280;865;53.672;10.250;2024-01-06T04:54:57;100265.66;;;-2.12;100.00
1736;BME280;865;53.672;10.250;2024-01-06T04:57:24;100269.13;;;-2.10;100.00
1736;BME280;865;53.672;10.250;2024-01-06T04:59:50;100284.53;;;-2.06;100.00
1736;BME280;865;53.672;10.250;2024-01-06T05:02:16;100272.50;;;-2.11;100.00
1736;BME280;865;53.672;10.250;2024-01-06T05:04:43;100288.78;;;-2.08;100.00
1736;BME280;865;53.672;10.250;2024-01-06T05:07:09;100288.84;;;-2.04;100.00
1736;BME280;865;53.672;10.250;2024-01-06T05:09:35;100295.53;;;-2.10;100.00
1736;BME280;865;53.672;10.250;2024-01-06T05:12:02;100295.53;;;-2.10;100.00
1736;BME280;865;53.672;10.250;2024-01-06T05:14:29;100296.38;;;-2.09;100.00
1736;BME280;865;53.672;10.250;2024-01-06T05:16:55;100289.63;;;-2.07;100.00
1736;BME280;865;53.672;10.250;2024-01-06T05:19:21;100298.28;;;-2.02;100.00
1736;BME280;865;53.672;10.250;2024-01-06T05:21:48;100303.19;;;-2.10;100.00
1736;BME280;865;53.672;10.250;2024-01-06T05:24:15;100305.66;;;-2.13;100.00
1736;BME280;865;53.672;10.250;2024-01-06T05:26:42;100303.81;;;-2.18;100.00
1736;BME280;865;53.672;10.250;2024-01-06T05:29:08;100308.91;;;-2.20;100.00
1736;BME280;865;53.672;10.250;2024-01-06T05:31:34;100307.31;;;-2.15;100.00
1736;BME280;865;53.672;10.250;2024-01-06T05:34:01;100312.34;;;-2.18;100.00
1736;BME280;865;53.672;10.250;2024-01-06T05:36:27;100317.38;;;-2.21;100.00
1736;BME280;865;53.672;10.250;2024-01-06T05:38:54;100322.47;;;-2.22;100.00
1736;BME280;865;53.672;10.250;2024-01-06T05:41:20;100331.00;;;-2.22;100.00
1736;BME280;865;53.672;10.250;2024-01-06T05:43:47;100337.94;;;-2.16;100.00
1736;BME280;865;53.672;10.250;2024-01-06T05:46:23;100332.09;;;-2.12;100.00
1736;BME280;865;53.672;10.250;2024-01-06T05:48:50;100343.94;;;-2.14;100.00
1736;BME280;865;53.672;10.250;2024-01-06T05:51:17;100344.84;;;-2.12;100.00
1736;BME280;865;53.672;10.250;2024-01-06T05:53:43;100351.66;;;-2.13;100.00
1736;BME280;865;53.672;10.250;2024-01-06T05:56:10;100353.38;;;-2.12;100.00
1736;BME280;865;53.672;10.250;2024-01-06T05:58:37;100358.47;;;-2.13;100.00
1736;BME280;865;53.672;10.250;2024-01-06T06:01:03;100359.13;;;-2.20;100.00
1736;BME280;865;53.672;10.250;2024-01-06T06:03:30;100366.06;;;-2.16;100.00
1736;BME280;865;53.672;10.250;2024-01-06T06:05:57;100377.13;;;-2.16;100.00
1736;BME280;865;53.672;10.250;2024-01-06T06:08:23;100383.22;;;-2.11;100.00
1736;BME280;865;53.672;10.250;2024-01-06T06:10:49;100383.19;;;-2.12;100.00
1736;BME280;865;53.672;10.250;2024-01-06T06:13:31;100403.63;;;-2.12;100.00
1736;BME280;865;53.672;10.250;2024-01-06T06:15:57;100403.63;;;-2.12;100.00
1736;BME280;865;53.672;10.250;2024-01-06T06:18:24;100406.16;;;-2.14;100.00
1736;BME280;865;53.672;10.250;2024-01-06T06:20:50;100415.47;;;-2.14;100.00
1736;BME280;865;53.672;10.250;2024-01-06T06:23:17;100414.59;;;-2.16;100.00
1736;BME280;865;53.672;10.250;2024-01-06T06:25:43;100425.00;;;-2.09;100.00
1736;BME280;865;53.672;10.250;2024-01-06T06:28:09;100424.13;;;-2.09;100.00
1736;BME280;865;53.672;10.250;2024-01-06T06:30:36;100427.53;;;-2.10;100.00
1736;BME280;865;53.672;10.250;2024-01-06T06:33:03;100433.50;;;-2.10;100.00
1736;BME280;865;53.672;10.250;2024-01-06T06:35:29;100438.59;;;-2.11;100.00
1736;BME280;865;53.672;10.250;2024-01-06T06:37:56;100444.41;;;-2.15;100.00
1736;BME280;865;53.672;10.250;2024-01-06T06:40:23;100452.25;;;-2.09;100.00
1736;BME280;865;53.672;10.250;2024-01-06T06:42:49;100454.88;;;-2.06;100.00
1736;BME280;865;53.672;10.250;2024-01-06T06:45:16;100462.53;;;-2.06;100.00
1736;BME280;865;53.672;10.250;2024-01-06T06:47:43;100454.00;;;-2.08;100.00
1736;BME280;865;53.672;10.250;2024-01-06T06:50:09;100466.03;;;-2.04;100.00
1736;BME280;865;53.672;10.250;2024-01-06T06:52:35;100466.69;;;-2.11;100.00
1736;BME280;865;53.672;10.250;2024-01-06T06:55:02;100465.09;;;-2.06;100.00
1736;BME280;865;53.672;10.250;2024-01-06T06:57:28;100471.88;;;-2.08;100.00
1736;BME280;865;53.672;10.250;2024-01-06T06:59:55;100477.63;;;-2.15;100.00
1736;BME280;865;53.672;10.250;2024-01-06T07:02:21;100469.09;;;-2.16;100.00
1736;BME280;865;53.672;10.250;2024-01-06T07:04:47;100476.78;;;-2.14;100.00
1736;BME280;865;53.672;10.250;2024-01-06T07:07:14;100476.00;;;-2.13;100.00
1736;BME280;865;53.672;10.250;2024-01-06T07:09:40;100473.31;;;-2.18;100.00
1736;BME280;865;53.672;10.250;2024-01-06T07:12:07;100475.91;;;-2.16;100.00
1736;BME280;865;53.672;10.250;2024-01-06T07:14:34;100472.53;;;-2.15;100.00
1736;BME280;865;53.672;10.250;2024-01-06T07:17:00;100474.91;;;-2.21;100.00
1736;BME280;865;53.672;10.250;2024-01-06T07:19:26;100475.66;;;-2.25;100.00
1736;BME280;865;53.672;10.250;2024-01-06T07:21:53;100469.72;;;-2.24;100.00
1736;BME280;865;53.672;10.250;2024-01-06T07:24:20;100476.28;;;-2.33;100.00
1736;BME280;865;53.672;10.250;2024-01-06T07:26:46;100482.38;;;-2.29;100.00
1736;BME280;865;53.672;10.250;2024-01-06T07:29:13;100479.78;;;-2.31;100.00
1736;BME280;865;53.672;10.250;2024-01-06T07:31:39;100490.84;;;-2.30;100.00
1736;BME280;865;53.672;10.250;2024-01-06T07:34:05;100493.41;;;-2.30;100.00
1736;BME280;865;53.672;10.250;2024-01-06T07:36:32;100488.44;;;-2.25;100.00
1736;BME280;865;53.672;10.250;2024-01-06T07:38:59;100492.84;;;-2.20;100.00
1736;BME280;865;53.672;10.250;2024-01-06T07:41:25;100494.34;;;-2.26;100.00
1736;BME280;865;53.672;10.250;2024-01-06T07:43:52;100497.78;;;-2.26;100.00
1736;BME280;865;53.672;10.250;2024-01-06T07:46:18;100501.47;;;-2.16;100.00
1736;BME280;865;53.672;10.250;2024-01-06T07:48:46;100507.25;;;-2.22;100.00
1736;BME280;865;53.672;10.250;2024-01-06T07:51:12;100507.94;;;-2.27;100.00
1736;BME280;865;53.672;10.250;2024-01-06T07:53:39;100508.97;;;-2.21;100.00
1736;BME280;865;53.672;10.250;2024-01-06T07:56:06;100517.47;;;-2.22;100.00
1736;BME280;865;53.672;10.250;2024-01-06T07:58:32;100527.66;;;-2.23;100.00
1736;BME280;865;53.672;10.250;2024-01-06T08:00:59;100530.28;;;-2.20;100.00
1736;BME280;865;53.672;10.250;2024-01-06T08:03:25;100540.59;;;-2.17;100.00
1736;BME280;865;53.672;10.250;2024-01-06T08:05:52;100539.91;;;-2.12;100.00
1736;BME280;865;53.672;10.250;2024-01-06T08:08:18;100547.72;;;-2.07;100.00
1736;BME280;865;53.672;10.250;2024-01-06T08:10:46;100554.38;;;-2.12;100.00
1736;BME280;865;53.672;10.250;2024-01-06T08:13:15;100549.84;;;-2.22;100.00
1736;BME280;865;53.672;10.250;2024-01-06T08:15:42;100561.84;;;-2.20;100.00
1736;BME280;865;53.672;10.250;2024-01-06T08:18:08;100561.00;;;-2.19;100.00
1736;BME280;865;53.672;10.250;2024-01-06T08:20:35;100565.50;;;-2.10;100.00
1736;BME280;865;53.672;10.250;2024-01-06T08:23:01;100565.25;;;-2.19;100.00
1736;BME280;865;53.672;10.250;2024-01-06T08:25:28;100569.53;;;-2.18;100.00
1736;BME280;865;53.672;10.250;2024-01-06T08:27:54;100577.94;;;-2.22;100.00
1736;BME280;865;53.672;10.250;2024-01-06T08:30:21;100589.88;;;-2.21;100.00
1736;BME280;865;53.672;10.250;2024-01-06T08:32:49;100595.00;;;-2.21;100.00
1736;BME280;865;53.672;10.250;2024-01-06T08:35:16;100595.84;;;-2.21;100.00
1736;BME280;865;53.672;10.250;2024-01-06T08:37:43;100602.06;;;-2.13;100.00
1736;BME280;865;53.672;10.250;2024-01-06T08:40:10;100608.88;;;-2.12;100.00
1736;BME280;865;53.672;10.250;2024-01-06T08:42:37;100610.59;;;-2.12;100.00
1736;BME280;865;53.672;10.250;2024-01-06T08:45:04;100622.59;;;-2.10;100.00
1736;BME280;865;53.672;10.250;2024-01-06T08:47:31;100628.38;;;-2.15;100.00
1736;BME280;865;53.672;10.250;2024-01-06T08:49:58;100622.56;;;-2.11;100.00
1736;BME280;865;53.672;10.250;2024-01-06T08:52:24;100643.53;;;-2.21;100.00
1736;BME280;865;53.672;10.250;2024-01-06T08:54:50;100636.78;;;-2.19;100.00
1736;BME280;865;53.672;10.250;2024-01-06T08:57:17;100641.25;;;-2.12;100.00
1736;BME280;865;53.672;10.250;2024-01-06T08:59:44;100650.84;;;-2.05;100.00
1736;BME280;865;53.672;10.250;2024-01-06T09:02:11;100656.81;;;-2.04;100.00
1736;BME280;865;53.672;10.250;2024-01-06T09:04:38;100655.78;;;-2.11;100.00
1736;BME280;865;53.672;10.250;2024-01-06T09:07:05;100660.06;;;-2.10;100.00
1736;BME280;865;53.672;10.250;2024-01-06T09:09:32;100664.56;;;-2.01;100.00
1736;BME280;865;53.672;10.250;2024-01-06T09:11:59;100668.09;;;-1.98;100.00
1736;BME280;865;53.672;10.250;2024-01-06T09:14:26;100678.22;;;-2.01;100.00
1736;BME280;865;53.672;10.250;2024-01-06T09:16:52;100688.25;;;-2.07;100.00
1736;BME280;865;53.672;10.250;2024-01-06T09:19:18;100685.63;;;-2.09;100.00
1736;BME280;865;53.672;10.250;2024-01-06T09:21:45;100690.72;;;-2.10;100.00
1736;BME280;865;53.672;10.250;2024-01-06T09:24:12;100696.94;;;-2.02;100.00
1736;BME280;865;53.672;10.250;2024-01-06T09:26:38;100701.25;;;-1.99;100.00
1736;BME280;865;53.672;10.250;2024-01-06T09:29:05;100703.88;;;-1.98;100.00
1736;BME280;865;53.672;10.250;2024-01-06T09:31:31;100713.16;;;-2.00;100.00
1736;BME280;865;53.672;10.250;2024-01-06T09:34:02;100709.84;;;-1.97;100.00
1736;BME280;865;53.672;10.250;2024-01-06T09:36:30;100714.25;;;-1.93;100.00
1736;BME280;865;53.672;10.250;2024-01-06T09:38:57;100713.91;;;-2.04;100.00
1736;BME280;865;53.672;10.250;2024-01-06T09:41:24;100725.13;;;-1.99;100.00
1736;BME280;865;53.672;10.250;2024-01-06T09:43:51;100722.50;;;-2.02;100.00
1736;BME280;865;53.672;10.250;2024-01-06T09:46:24;100733.59;;;-2.00;100.00
1736;BME280;865;53.672;10.250;2024-01-06T09:48:55;100732.75;;;-2.00;100.00
1736;BME280;865;53.672;10.250;2024-01-06T09:51:22;100741.28;;;-2.00;100.00
1736;BME280;865;53.672;10.250;2024-01-06T09:54:00;100746.00;;;-1.85;100.00
1736;BME280;865;53.672;10.250;2024-01-06T09:56:28;100753.63;;;-1.87;100.00
1736;BME280;865;53.672;10.250;2024-01-06T09:58:55;100754.16;;;-1.97;100.00
1736;BME280;865;53.672;10.250;2024-01-06T10:01:22;100757.53;;;-1.98;100.00
1736;BME280;865;53.672;10.250;2024-01-06T10:03:49;100755.16;;;-1.92;100.00
1736;BME280;865;53.672;10.250;2024-01-06T10:06:16;100763.75;;;-1.90;100.00
1736;BME280;865;53.672;10.250;2024-01-06T10:08:44;100766.34;;;-1.88;100.00
1736;BME280;865;53.672;10.250;2024-01-06T10:11:14;100762.00;;;-1.91;100.00
1736;BME280;865;53.672;10.250;2024-01-06T10:13:40;100770.41;;;-1.95;100.00
1736;BME280;865;53.672;10.250;2024-01-06T10:16:07;100766.34;;;-1.88;100.00
1736;BME280;865;53.672;10.250;2024-01-06T10:18:34;100779.19;;;-1.87;100.00
1736;BME280;865;53.672;10.250;2024-01-06T10:21:06;100783.53;;;-1.84;100.00
1736;BME280;865;53.672;10.250;2024-01-06T10:23:33;100789.41;;;-1.87;100.00
1736;BME280;865;53.672;10.250;2024-01-06T10:26:00;100787.44;;;-1.95;100.00
1736;BME280;865;53.672;10.250;2024-01-06T10:28:30;100792.69;;;-1.91;100.00
1736;BME280;865;53.672;10.250;2024-01-06T10:30:57;100794.53;;;-1.87;100.00
1736;BME280;865;53.672;10.250;2024-01-06T10:33:25;100793.84;;;-1.81;100.00
1736;BME280;865;53.672;10.250;2024-01-06T10:35:53;100796.91;;;-1.93;100.00
1736;BME280;865;53.672;10.250;2024-01-06T10:38:22;100798.63;;;-1.92;100.00
1736;BME280;865;53.672;10.250;2024-01-06T10:41:16;100803.69;;;-1.93;100.00
1736;BME280;865;53.672;10.250;2024-01-06T10:43:44;100805.38;;;-1.94;100.00
1736;BME280;865;53.672;10.250;2024-01-06T10:46:10;100802.19;;;-1.87;100.00
1736;BME280;865;53.672;10.250;2024-01-06T10:48:39;100804.75;;;-1.87;100.00
1736;BME280;865;53.672;10.250;2024-01-06T10:51:10;100809.69;;;-1.93;100.00
1736;BME280;865;53.672;10.250;2024-01-06T10:53:37;100809.81;;;-1.88;100.00
1736;BME280;865;53.672;10.250;2024-01-06T10:56:06;100808.22;;;-1.85;100.00
1736;BME280;865;53.672;10.250;2024-01-06T10:58:35;100816.41;;;-1.95;100.00
1736;BME280;865;53.672;10.250;2024-01-06T11:01:09;100815.69;;;-1.91;100.00
1736;BME280;865;53.672;10.250;2024-01-06T11:03:37;100816.63;;;-1.89;100.00
1736;BME280;865;53.672;10.250;2024-01-06T11:06:06;100818.16;;;-1.94;100.00
1736;BME280;865;53.672;10.250;2024-01-06T11:08:38;100830.13;;;-1.93;100.00
1736;BME280;865;53.672;10.250;2024-01-06T11:11:09;100820.59;;;-1.97;100.00
1736;BME280;865;53.672;10.250;2024-01-06T11:13:35;100824.91;;;-1.96;100.00
1736;BME280;865;53.672;10.250;2024-01-06T11:16:03;100824.84;;;-1.97;100.00
1736;BME280;865;53.672;10.250;2024-01-06T11:18:36;100822.16;;;-2.02;100.00
1736;BME280;865;53.672;10.250;2024-01-06T11:24:24;100822.34;;;-1.96;100.00
1736;BME280;865;53.672;10.250;2024-01-06T11:26:55;100818.88;;;-1.98;100.00
1736;BME280;865;53.672;10.250;2024-01-06T11:29:22;100822.06;;;-2.05;100.00
1736;BME280;865;53.672;10.250;2024-01-06T11:32:21;100817.19;;;-1.97;100.00
1736;BME280;865;53.672;10.250;2024-01-06T11:34:51;100822.25;;;-1.99;100.00
1736;BME280;865;53.672;10.250;2024-01-06T11:37:24;100827.88;;;-2.09;100.00
1736;BME280;865;53.672;10.250;2024-01-06T11:39:51;100833.09;;;-2.06;100.00
1736;BME280;865;53.672;10.250;2024-01-06T11:42:17;100833.16;;;-2.04;100.00
1736;BME280;865;53.672;10.250;2024-01-06T11:44:44;100828.28;;;-1.97;100.00
1736;BME280;865;53.672;10.250;2024-01-06T11:47:15;100824.09;;;-1.95;100.00
1736;BME280;865;53.672;10.250;2024-01-06T11:49:45;100832.69;;;-1.93;100.00
1736;BME280;865;53.672;10.250;2024-01-06T11:52:14;100832.72;;;-1.91;100.00
1736;BME280;865;53.672;10.250;2024-01-06T11:54:42;100836.19;;;-1.89;100.00
1736;BME280;865;53.672;10.250;2024-01-06T11:57:10;100836.97;;;-1.92;100.00
1736;BME280;865;53.672;10.250;2024-01-06T11:59:36;100826.63;;;-1.95;100.00
1736;BME280;865;53.672;10.250;2024-01-06T12:02:03;100834.16;;;-1.99;100.00
1736;BME280;865;53.672;10.250;2024-01-06T12:04:29;100827.22;;;-2.03;100.00
1736;BME280;865;53.672;10.250;2024-01-06T12:07:06;100830.72;;;-2.00;100.00
1736;BME280;865;53.672;10.250;2024-01-06T12:09:33;100819.44;;;-2.07;100.00
1736;BME280;865;53.672;10.250;2024-01-06T12:12:04;100827.19;;;-2.05;100.00
1736;BME280;865;53.672;10.250;2024-01-06T12:14:31;100830.72;;;-2.00;100.00
1736;BME280;865;53.672;10.250;2024-01-06T12:16:59;100829.97;;;-1.97;100.00
1736;BME280;865;53.672;10.250;2024-01-06T12:19:33;100831.56;;;-2.01;100.00
1736;BME280;865;53.672;10.250;2024-01-06T12:22:06;100826.53;;;-1.98;100.00
1736;BME280;865;53.672;10.250;2024-01-06T12:24:32;100831.47;;;-2.04;100.00
1736;BME280;865;53.672;10.250;2024-01-06T12:26:59;100833.94;;;-2.06;100.00
1736;BME280;865;53.672;10.250;2024-01-06T12:29:29;100842.50;;;-2.05;100.00
1736;BME280;865;53.672;10.250;2024-01-06T12:31:55;100834.84;;;-2.05;100.00
1736;BME280;865;53.672;10.250;2024-01-06T12:34:22;100843.41;;;-2.03;100.00
1736;BME280;865;53.672;10.250;2024-01-06T12:36:52;100838.28;;;-2.03;100.00
1736;BME280;865;53.672;10.250;2024-01-06T12:39:19;100843.69;;;-1.94;100.00
1736;BME280;865;53.672;10.250;2024-01-06T12:41:46;100844.38;;;-1.99;100.00
1736;BME280;865;53.672;10.250;2024-01-06T12:44:12;100845.38;;;-1.96;100.00
1736;BME280;865;53.672;10.250;2024-01-06T12:46:38;100844.44;;;-1.98;100.00
1736;BME280;865;53.672;10.250;2024-01-06T12:49:05;100847.75;;;-2.00;100.00
1736;BME280;865;53.672;10.250;2024-01-06T12:51:32;100847.09;;;-1.95;100.00
1736;BME280;865;53.672;10.250;2024-01-06T12:53:58;100846.63;;;-2.09;100.00
1736;BME280;865;53.672;10.250;2024-01-06T12:56:25;100844.06;;;-2.09;100.00
1736;BME280;865;53.672;10.250;2024-01-06T12:58:51;100851.63;;;-2.12;100.00
1736;BME280;865;53.672;10.250;2024-01-06T13:01:18;100855.84;;;-2.14;100.00
1736;BME280;865;53.672;10.250;2024-01-06T13:03:45;100852.56;;;-2.10;100.00